Time;durP1;ratioP1;P1;durP2;ratioP2;P2;SDS_P1;SDS_P2;PMS_P1;PMS_P2;Temp;Humidity;BMP_temperature;BMP_pressure;BME280_temperature;BME280_humidity;BME280_pressure;Samples;Min_cycle;Max_cycle;Signal;HPM_P1;HPM_P2
2023/01/11 00:02:09;;;;;;;4.80;3.20;;;;;;;-1.98;81.70;99433.05;105059;1264;61169;-24
2023/01/11 00:04:37;;;;;;;7.50;3.80;;;;;;;-1.55;80.28;99433.71;104892;1264;73611;-26
2023/01/11 00:07:04;;;;;;;6.40;3.40;;;;;;;-1.50;79.93;99441.93;105085;1266;75828;-26
2023/01/11 00:09:32;;;;;;;5.90;3.20;;;;;;;-1.64;79.72;99441.75;105206;1264;74257;-24
2023/01/11 00:11:59;;;;;;;8.10;3.60;;;;;;;-1.86;80.36;99443.48;105212;1264;61015;-25
2023/01/11 00:14:26;;;;;;;5.00;2.30;;;;;;;-2.08;81.16;99447.92;105269;1263;61577;-25
2023/01/11 00:16:53;;;;;;;5.70;2.40;;;;;;;-1.85;81.31;99449.27;105351;1263;74244;-26
2023/01/11 00:19:21;;;;;;;5.40;2.60;;;;;;;-1.54;80.29;99451.39;105634;1260;75739;-26
2023/01/11 00:21:48;;;;;;;4.00;2.60;;;;;;;-1.61;80.17;99452.75;105633;1257;73881;-26
2023/01/11 00:24:15;;;;;;;4.40;2.00;;;;;;;-1.78;80.39;99453.85;105579;1258;61119;-26
2023/01/11 00:26:42;;;;;;;3.40;2.40;;;;;;;-2.03;81.46;99449.15;105648;1259;61803;-26
2023/01/11 00:29:09;;;;;;;5.20;2.70;;;;;;;-2.01;82.05;99455.40;105607;1256;74409;-25
2023/01/11 00:31:36;;;;;;;3.70;2.80;;;;;;;-1.58;81.22;99452.15;105494;1258;75629;-26
2023/01/11 00:34:04;;;;;;;3.60;3.10;;;;;;;-1.49;80.34;99455.86;105974;1251;72628;-26
2023/01/11 00:36:31;;;;;;;5.10;3.10;;;;;;;-1.66;80.25;99455.95;105860;1254;61174;-27
2023/01/11 00:38:58;;;;;;;6.60;4.20;;;;;;;-1.89;81.16;99461.77;105744;1254;61004;-26
2023/01/11 00:49:43;;;;;;;4.30;2.10;;;;;;;-1.61;80.82;99465.53;105810;1254;61090;-26
2023/01/11 00:53:10;;;;;;;3.70;2.60;;;;;;;-1.84;81.69;99468.80;102600;1295;600749;-26
2023/01/11 00:55:37;;;;;;;6.20;3.40;;;;;;;-1.97;82.30;99471.31;104799;1273;62778;-26
2023/01/11 00:58:04;;;;;;;2.50;1.90;;;;;;;-1.57;81.57;99471.05;104815;1272;61920;-26
2023/01/11 01:00:31;;;;;;;3.10;2.10;;;;;;;-1.36;81.03;99472.56;104827;1267;73657;-26
2023/01/11 01:02:58;;;;;;;4.90;2.20;;;;;;;-1.46;80.56;99471.64;104818;1268;75528;-25
2023/01/11 01:05:25;;;;;;;4.40;2.60;;;;;;;-1.68;81.26;99468.41;104794;1272;75215;-25
2023/01/11 01:07:52;;;;;;;6.80;3.20;;;;;;;-1.91;82.18;99469.98;104013;1269;1455548;-25
2023/01/11 01:10:19;;;;;;;7.20;2.40;;;;;;;-1.77;82.61;99468.96;105221;1261;62802;-25
2023/01/11 01:15:32;;;;;;;7.80;2.30;;;;;;;-1.43;80.94;99472.91;105240;1267;77117;-26
2023/01/11 01:18:00;;;;;;;3.50;2.50;;;;;;;-1.61;81.10;99476.92;105225;1266;75154;-26
2023/01/11 01:20:27;;;;;;;3.70;2.30;;;;;;;-1.85;81.79;99473.58;105039;1260;61167;-26
2023/01/11 01:22:54;;;;;;;5.50;2.10;;;;;;;-1.69;82.27;99475.94;105031;1262;62519;-26
2023/01/11 01:25:20;;;;;;;3.10;1.80;;;;;;;-1.32;81.06;99470.42;105063;1265;75130;-25
2023/01/11 01:27:47;;;;;;;4.00;2.50;;;;;;;-1.31;80.53;99471.92;105129;1266;75770;-26
2023/01/11 01:30:15;;;;;;;7.20;3.30;;;;;;;-1.47;80.61;99472.85;105170;1264;74710;-25
2023/01/11 01:32:42;;;;;;;4.50;2.20;;;;;;;-1.69;81.14;99473.20;105097;1260;61170;-26
2023/01/11 01:35:09;;;;;;;4.30;2.00;;;;;;;-1.72;81.97;99477.87;105184;1267;62812;-26
2023/01/11 01:37:36;;;;;;;3.90;2.60;;;;;;;-1.22;81.09;99480.90;105229;1261;73570;-25
2023/01/11 01:40:04;;;;;;;3.70;2.20;;;;;;;-1.09;80.03;99482.75;105115;1261;75755;-26
2023/01/11 01:42:31;;;;;;;4.20;2.50;;;;;;;-1.21;79.86;99485.12;105001;1267;74976;-26
2023/01/11 01:45:16;;;;;;;3.60;2.20;;;;;;;-1.49;80.43;99487.88;105152;1260;61074;-26
2023/01/11 01:47:49;;;;;;;4.70;2.40;;;;;;;-1.80;81.55;99489.47;105212;1267;62915;-26
2023/01/11 01:50:19;;;;;;;4.80;2.50;;;;;;;-1.63;81.86;99489.41;104929;1269;75450;-26
2023/01/11 01:52:48;;;;;;;3.90;2.60;;;;;;;-1.22;80.41;99486.20;104863;1260;76967;-26
2023/01/11 01:55:22;;;;;;;8.00;3.20;;;;;;;-1.26;79.60;99493.61;104935;1261;74589;-26
2023/01/11 01:57:49;;;;;;;6.10;2.70;;;;;;;-1.53;79.15;99493.25;105069;1261;61171;-26
2023/01/11 02:00:17;;;;;;;4.80;2.60;;;;;;;-1.79;80.23;99496.24;105186;1266;62675;-26
2023/01/11 02:02:44;;;;;;;6.30;2.60;;;;;;;-1.99;81.09;99493.99;105146;1270;75357;-26
2023/01/11 02:05:11;;;;;;;3.80;2.00;;;;;;;-1.81;81.13;99500.06;105275;1261;76556;-25
2023/01/11 02:07:39;;;;;;;6.50;2.50;;;;;;;-1.46;80.03;99506.37;105230;1266;75226;-26
2023/01/11 02:10:09;;;;;;;9.30;2.70;;;;;;;-1.50;79.51;99508.34;105271;1266;62135;-27
2023/01/11 02:12:48;;;;;;;3.70;2.50;;;;;;;-1.66;80.20;99508.23;105133;1264;63139;-25
2023/01/11 02:15:15;;;;;;;6.60;2.10;;;;;;;-1.88;81.04;99515.34;105115;1270;74994;-26
2023/01/11 02:17:42;;;;;;;3.20;2.00;;;;;;;-1.90;81.42;99514.04;105187;1269;76610;-25
2023/01/11 02:20:54;;;;;;;3.10;2.00;;;;;;;-1.48;80.64;99513.23;105193;1263;74107;-26
2023/01/11 02:23:27;;;;;;;3.40;2.40;;;;;;;-1.36;79.99;99514.98;104845;1262;61848;-26
2023/01/11 02:26:13;;;;;;;3.90;2.70;;;;;;;-1.51;80.32;99518.08;105118;1266;62502;-25
2023/01/11 02:28:50;;;;;;;4.10;2.40;;;;;;;-1.74;81.32;99516.92;104894;1264;75548;-25
2023/01/11 02:31:27;;;;;;;3.60;2.20;;;;;;;-1.84;82.22;99521.39;104998;1267;76735;-26
2023/01/11 02:34:51;;;;;;;5.50;3.40;;;;;;;-1.45;81.56;99520.98;105188;1267;75359;-25
2023/01/11 02:37:30;;;;;;;;;;;;;;;-1.41;80.97;99522.25;104671;1275;61238;-25
2023/01/11 02:39:58;;;;;;;2.60;1.40;;;;;;;-1.58;81.29;99519.94;104614;1268;62640;-25
2023/01/11 02:46:12;;;;;;;1.70;1.30;;;;;;;-1.55;82.60;99516.65;104797;1267;76805;-25
2023/01/11 02:48:46;;;;;;;3.00;1.60;;;;;;;-1.15;81.12;99515.63;104753;1270;75217;-25
2023/01/11 02:51:23;;;;;;;3.50;1.70;;;;;;;-1.23;80.84;99517.39;104816;1267;62111;-25
2023/01/11 02:54:00;;;;;;;3.70;1.50;;;;;;;-1.51;81.31;99507.52;104753;1267;61920;-25
2023/01/11 02:56:29;;;;;;;4.40;1.80;;;;;;;-1.78;81.84;99511.55;104500;1274;75540;-25
2023/01/11 02:58:57;;;;;;;2.30;1.50;;;;;;;-1.57;82.31;99512.42;104427;1267;76739;-25
2023/01/11 03:01:24;;;;;;;4.80;1.90;;;;;;;-1.25;81.01;99516.92;104502;1269;74946;-25
2023/01/11 03:03:52;;;;;;;2.10;1.20;;;;;;;-1.32;80.50;99517.95;104675;1267;61176;-25
2023/01/11 03:06:21;;;;;;;2.40;1.30;;;;;;;-1.54;80.98;99527.69;104682;1267;61754;-25
2023/01/11 03:09:16;;;;;;;4.80;2.40;;;;;;;-1.77;81.91;99530.61;104742;1257;73041;-25
2023/01/11 03:14:44;;;;;;;10.10;3.30;;;;;;;-1.33;80.81;99523.42;105071;1263;75230;-26
2023/01/11 03:17:36;;;;;;;2.30;1.70;;;;;;;-1.37;80.74;99523.00;105090;1257;61928;-25
2023/01/11 03:20:09;;;;;;;4.60;2.40;;;;;;;-1.60;81.13;99527.14;105102;1264;62510;-24
2023/01/11 03:22:57;;;;;;;3.40;1.60;;;;;;;-1.82;82.26;99531.23;105192;1266;75545;-26
2023/01/11 03:25:40;;;;;;;4.70;3.10;;;;;;;-1.56;82.25;99536.58;105275;1258;75524;-26
2023/01/11 03:28:24;;;;;;;4.00;2.60;;;;;;;-1.25;81.38;99533.10;105229;1264;73928;-23
2023/01/11 03:31:04;;;;;;;4.40;2.40;;;;;;;-1.34;80.91;99532.65;105170;1261;62088;-25
2023/01/11 03:33:37;;;;;;;7.50;2.60;;;;;;;-1.60;81.38;99534.80;105067;1257;63023;-26
2023/01/11 03:36:16;;;;;;;5.30;2.70;;;;;;;-1.88;81.93;99540.05;105133;1264;74548;-25
2023/01/11 03:38:53;;;;;;;3.60;2.30;;;;;;;-1.66;81.66;99542.77;105134;1258;75465;-23
2023/01/11 03:41:23;;;;;;;5.60;2.50;;;;;;;-1.47;80.43;99534.67;105085;1260;75048;-25
2023/01/11 03:43:51;;;;;;;2.30;2.00;;;;;;;-1.63;80.15;99526.19;105124;1258;61062;-27
2023/01/11 03:46:21;;;;;;;3.80;2.60;;;;;;;-1.94;80.90;99528.95;105020;1267;61170;-26
2023/01/11 03:48:53;;;;;;;7.10;3.00;;;;;;;-2.25;81.57;99527.55;105583;1254;75567;-26
2023/01/11 03:51:23;;;;;;;7.50;3.90;;;;;;;-2.05;81.66;99531.23;105395;1254;76715;-25
2023/01/11 03:53:50;;;;;;;7.50;2.80;;;;;;;-1.85;80.65;99537.61;105287;1254;74167;-25
2023/01/11 03:56:20;;;;;;;4.70;2.40;;;;;;;-2.00;80.78;99540.81;105447;1259;61209;-25
2023/01/11 03:58:47;;;;;;;11.50;4.40;;;;;;;-2.18;81.13;99545.95;105363;1253;61733;-25
2023/01/11 04:01:13;;;;;;;9.60;4.20;;;;;;;-2.40;81.80;99547.42;105694;1256;75386;-26
2023/01/11 04:03:40;;;;;;;6.80;3.80;;;;;;;-2.19;81.39;99541.05;105801;1254;75706;-25
2023/01/11 04:06:07;;;;;;;8.90;4.60;;;;;;;-1.91;79.82;99544.52;105732;1254;75407;-25
2023/01/11 04:08:34;;;;;;;15.30;6.20;;;;;;;-1.99;79.56;99542.83;105292;1261;61112;-26
2023/01/11 04:11:04;;;;;;;10.90;4.40;;;;;;;-2.27;79.96;99546.49;105568;1254;61467;-26
2023/01/11 04:13:32;;;;;;;4.10;2.90;;;;;;;-2.53;80.46;99548.55;105610;1255;74422;-26
2023/01/11 04:16:00;;;;;;;9.30;3.70;;;;;;;-2.67;80.83;99554.77;105672;1254;76531;-25
2023/01/11 04:18:27;;;;;;;6.90;3.30;;;;;;;-2.26;80.45;99548.52;105473;1254;75185;-26
2023/01/11 04:20:54;;;;;;;7.00;3.90;;;;;;;-2.09;79.38;99553.77;105481;1259;61198;-25
2023/01/11 04:23:20;;;;;;;13.50;4.30;;;;;;;-2.23;79.38;99549.64;105460;1260;62567;-25
2023/01/11 04:25:47;;;;;;;5.60;3.00;;;;;;;-2.44;79.56;99548.36;105506;1259;75371;-26
2023/01/11 04:28:14;;;;;;;7.90;3.20;;;;;;;-2.71;80.83;99548.88;105777;1257;77107;-25
2023/01/11 04:30:41;;;;;;;6.50;3.30;;;;;;;-2.65;81.39;99554.73;105492;1255;74047;-25
2023/01/11 04:33:11;;;;;;;5.90;3.20;;;;;;;-2.19;80.16;99560.59;105520;1256;61717;-25
2023/01/11 04:35:39;;;;;;;6.70;4.10;;;;;;;-2.19;79.18;99564.52;105587;1256;62529;-26
2023/01/11 04:38:06;;;;;;;5.20;3.10;;;;;;;-2.43;79.02;99559.05;105484;1259;73082;-26
2023/01/11 04:40:32;;;;;;;6.50;3.70;;;;;;;-2.75;79.73;99563.74;105573;1257;76995;-26
2023/01/11 04:43:01;;;;;;;8.10;4.10;;;;;;;-2.99;80.60;99564.33;105723;1254;73839;-26
2023/01/11 04:45:29;;;;;;;6.60;2.60;;;;;;;-2.74;80.24;99562.52;105732;1257;61224;-26
2023/01/11 04:47:56;;;;;;;6.70;3.20;;;;;;;-2.39;79.27;99563.72;105176;1254;62851;-25
2023/01/11 04:50:24;;;;;;;11.10;4.20;;;;;;;-2.40;78.73;99567.33;105516;1253;73248;-25
2023/01/11 04:52:51;;;;;;;6.30;3.10;;;;;;;-2.64;78.97;99571.19;105433;1259;77142;-26
2023/01/11 04:55:18;;;;;;;7.50;4.20;;;;;;;-2.88;79.43;99574.16;105669;1254;74100;-26
2023/01/11 04:57:45;;;;;;;6.80;3.00;;;;;;;-3.08;80.22;99576.73;105649;1253;63999;-25
2023/01/11 05:00:14;;;;;;;12.90;3.90;;;;;;;-2.79;79.99;99568.58;105701;1254;62781;-26
2023/01/11 05:02:41;;;;;;;6.90;3.90;;;;;;;-2.53;78.66;99581.69;105684;1254;73429;-23
2023/01/11 05:05:09;;;;;;;4.40;2.40;;;;;;;-2.59;78.50;99578.40;105602;1257;76294;-26
2023/01/11 05:07:37;;;;;;;12.70;4.90;;;;;;;-2.76;78.75;99578.56;105561;1254;74851;-26
2023/01/11 05:10:05;;;;;;;3.20;2.10;;;;;;;-3.06;79.38;99578.05;105509;1254;61164;-26
2023/01/11 05:12:32;;;;;;;10.30;3.90;;;;;;;-3.17;80.45;99584.86;105820;1257;62739;-23
2023/01/11 05:14:59;;;;;;;17.70;5.30;;;;;;;-2.75;79.93;99588.73;105594;1259;75746;-26
2023/01/11 05:17:26;;;;;;;13.50;4.80;;;;;;;-2.61;78.67;99591.52;105498;1256;76655;-25
2023/01/11 05:19:53;;;;;;;9.50;5.00;;;;;;;-2.72;78.79;99599.22;105341;1259;74934;-26
2023/01/11 05:22:20;;;;;;;8.40;3.90;;;;;;;-2.95;79.06;99601.47;105513;1257;61947;-25
2023/01/11 05:24:47;;;;;;;5.70;3.30;;;;;;;-3.26;79.61;99602.50;105742;1254;61434;-25
2023/01/11 05:27:14;;;;;;;4.70;3.40;;;;;;;-3.30;80.42;99602.05;105504;1257;75298;-26
2023/01/11 05:29:42;;;;;;;11.60;5.60;;;;;;;-2.90;79.15;99603.25;105496;1254;75635;-25
2023/01/11 05:32:11;;;;;;;16.70;5.00;;;;;;;-2.94;78.25;99607.40;105422;1254;75224;-26
2023/01/11 05:34:38;;;;;;;9.50;3.40;;;;;;;-3.14;78.48;99615.05;105484;1254;61762;-26
2023/01/11 05:37:05;;;;;;;7.50;3.70;;;;;;;-3.34;79.45;99620.45;105629;1254;61622;-25
2023/01/11 05:39:32;;;;;;;12.40;5.00;;;;;;;-3.53;80.15;99612.09;105567;1259;76213;-26
2023/01/11 05:41:58;;;;;;;6.10;3.30;;;;;;;-3.29;80.21;99615.63;105636;1256;74826;-25
2023/01/11 05:47:11;;;;;;;4.80;3.10;;;;;;;-2.97;78.40;99613.41;105686;1253;61035;-26
2023/01/11 05:49:38;;;;;;;10.20;5.20;;;;;;;-3.17;78.68;99616.64;105544;1257;62657;-26
2023/01/11 05:52:05;;;;;;;6.50;3.90;;;;;;;-3.48;78.90;99622.17;105611;1254;76301;-26
2023/01/11 05:54:32;;;;;;;5.40;3.00;;;;;;;-3.69;79.82;99628.25;105601;1257;76474;-26
2023/01/11 05:56:59;;;;;;;7.20;3.70;;;;;;;-3.31;79.80;99624.65;105562;1254;75236;-27
2023/01/11 05:59:26;;;;;;;5.30;3.40;;;;;;;-3.05;78.60;99620.17;105496;1254;61203;-27
2023/01/11 06:01:55;;;;;;;3.90;2.50;;;;;;;-3.13;78.19;99626.08;105567;1254;61661;-27
2023/01/11 06:04:22;;;;;;;8.00;4.40;;;;;;;-3.34;78.39;99625.71;105570;1257;75362;-26
2023/01/11 06:06:49;;;;;;;13.50;5.10;;;;;;;-3.61;78.84;99621.02;105552;1254;75631;-25
2023/01/11 06:09:16;;;;;;;9.80;3.70;;;;;;;-3.84;79.19;99620.99;105633;1254;75266;-25
2023/01/11 06:11:43;;;;;;;5.40;3.40;;;;;;;-3.57;78.85;99620.28;105525;1254;61218;-25
2023/01/11 06:14:10;;;;;;;7.00;3.50;;;;;;;-3.39;77.84;99623.76;105693;1259;63012;-25
2023/01/11 06:16:37;;;;;;;5.50;3.10;;;;;;;-3.47;77.95;99625.38;105663;1259;76298;-24
2023/01/11 06:19:04;;;;;;;10.90;4.50;;;;;;;-3.64;78.25;99623.79;105685;1259;76876;-25
2023/01/11 06:21:31;;;;;;;6.90;3.90;;;;;;;-3.96;79.07;99614.52;105531;1257;75082;-25
2023/01/11 06:23:58;;;;;;;6.30;3.80;;;;;;;-4.00;79.56;99617.61;105351;1259;63624;-25
2023/01/11 06:26:25;;;;;;;8.10;4.40;;;;;;;-3.61;78.84;99615.77;105549;1258;62826;-25
2023/01/11 06:28:52;;;;;;;8.90;5.00;;;;;;;-3.52;78.27;99620.36;105722;1254;76147;-25
2023/01/11 06:31:19;;;;;;;6.50;2.80;;;;;;;-3.65;78.27;99630.40;105688;1254;76104;-25
2023/01/11 06:33:46;;;;;;;9.80;4.40;;;;;;;-3.76;78.64;99633.27;105673;1257;74229;-26
2023/01/11 06:36:14;;;;;;;6.10;3.40;;;;;;;-3.93;78.90;99634.84;105208;1258;61871;-25
2023/01/11 06:38:41;;;;;;;9.70;3.90;;;;;;;-3.97;79.51;99634.73;105515;1253;61447;-26
2023/01/11 06:41:09;;;;;;;7.30;3.80;;;;;;;-3.46;79.23;99633.18;105814;1253;76331;-25
2023/01/11 06:43:37;;;;;;;15.80;4.70;;;;;;;-3.10;78.09;99644.02;105598;1258;76092;-25
2023/01/11 06:46:04;;;;;;;8.10;3.50;;;;;;;-3.13;77.51;99652.40;105504;1254;75161;-24
2023/01/11 06:48:31;;;;;;;5.50;3.20;;;;;;;-3.37;77.91;99650.89;105459;1259;62165;-25
2023/01/11 06:50:58;;;;;;;7.60;4.00;;;;;;;-3.59;78.53;99656.30;105451;1258;62841;-25
2023/01/11 06:53:26;;;;;;;8.00;3.90;;;;;;;-3.84;79.01;99658.30;105183;1254;73872;-26
2023/01/11 06:55:56;;;;;;;10.50;3.60;;;;;;;-3.75;78.66;99667.37;105651;1254;76539;-25
2023/01/11 06:58:23;;;;;;;7.10;4.60;;;;;;;-3.49;77.82;99678.57;105531;1254;75173;-25
2023/01/11 07:00:51;;;;;;;8.30;4.70;;;;;;;-3.55;77.53;99675.08;105581;1254;61770;-25
2023/01/11 07:03:25;;;;;;;9.40;4.30;;;;;;;-3.79;77.87;99673.17;105527;1257;62505;-25
2023/01/11 07:05:52;;;;;;;10.40;3.70;;;;;;;-4.06;78.56;99677.25;105580;1254;76330;-25
2023/01/11 07:08:19;;;;;;;15.50;4.90;;;;;;;-4.21;79.07;99680.80;105569;1254;76688;-25
2023/01/11 07:10:46;;;;;;;10.90;5.10;;;;;;;-3.82;78.59;99687.30;105566;1259;75209;-25
2023/01/11 07:13:16;;;;;;;5.60;2.70;;;;;;;-3.72;77.47;99691.94;105711;1257;62192;-25
2023/01/11 07:15:44;;;;;;;6.90;3.80;;;;;;;-3.79;77.72;99703.39;105709;1254;62045;-25
2023/01/11 07:18:11;;;;;;;8.20;4.50;;;;;;;-3.93;78.19;99702.02;105519;1258;76713;-25
2023/01/11 07:20:39;;;;;;;5.60;3.00;;;;;;;-4.11;78.77;99708.15;105641;1253;75513;-25
2023/01/11 07:23:06;;;;;;;5.10;3.30;;;;;;;-4.15;79.33;99704.47;105522;1254;73819;-25
2023/01/11 07:25:34;;;;;;;5.40;3.60;;;;;;;-3.59;78.71;99706.87;105695;1254;61161;-25
2023/01/11 07:28:05;;;;;;;11.40;4.80;;;;;;;-3.30;77.36;99706.66;105667;1259;63067;-25
2023/01/11 07:30:33;;;;;;;10.20;4.20;;;;;;;-3.34;77.14;99695.00;105588;1254;75992;-25
2023/01/11 07:33:20;;;;;;;4.90;2.90;;;;;;;-3.64;76.92;99682.66;105646;1254;76831;-25
2023/01/11 07:35:48;;;;;;;8.10;4.00;;;;;;;-3.86;77.74;99685.15;105672;1260;75327;-25
2023/01/11 07:38:15;;;;;;;7.00;4.20;;;;;;;-4.10;78.28;99681.35;105590;1254;61087;-25
2023/01/11 07:40:42;;;;;;;8.20;3.80;;;;;;;-4.00;77.98;99677.85;105604;1259;61855;-25
2023/01/11 07:43:10;;;;;;;8.00;3.90;;;;;;;-3.69;76.92;99682.39;105470;1256;75842;-25
2023/01/11 07:45:38;;;;;;;11.20;5.60;;;;;;;-3.68;76.23;99685.45;105511;1254;75704;-25
2023/01/11 07:48:13;;;;;;;7.10;4.50;;;;;;;-3.97;76.31;99685.80;105750;1257;75230;-25
2023/01/11 07:50:40;;;;;;;9.70;4.70;;;;;;;-4.22;77.07;99672.84;105574;1257;62073;-26
2023/01/11 07:53:10;;;;;;;7.30;3.90;;;;;;;-4.41;78.22;99667.78;105486;1259;63671;-25
2023/01/11 07:55:38;;;;;;;7.80;4.20;;;;;;;-4.17;78.53;99669.56;105651;1254;76366;-25
2023/01/11 07:58:07;;;;;;;8.90;4.50;;;;;;;-3.79;77.37;99664.20;105686;1259;74561;-25
2023/01/11 08:00:34;;;;;;;11.60;5.30;;;;;;;-3.81;76.65;99668.79;105669;1254;74003;-25
2023/01/11 08:03:01;;;;;;;9.90;4.60;;;;;;;-3.99;76.91;99663.59;105672;1259;61262;-25
2023/01/11 08:05:29;;;;;;;10.70;4.20;;;;;;;-4.21;77.17;99657.91;105692;1254;61522;-25
2023/01/11 08:07:56;;;;;;;5.70;3.30;;;;;;;-4.38;78.24;99670.29;105690;1257;74974;-25
2023/01/11 08:10:23;;;;;;;6.60;4.10;;;;;;;-4.13;78.60;99683.76;105637;1254;75519;-25
2023/01/11 08:15:36;;;;;;;10.20;5.60;;;;;;;-3.58;76.63;99709.92;105614;1258;62094;-25
2023/01/11 08:18:04;;;;;;;3.70;2.00;;;;;;;-3.82;76.37;99712.75;105542;1259;61389;-25
2023/01/11 08:20:31;;;;;;;6.10;3.20;;;;;;;-4.06;77.26;99715.73;105533;1254;76347;-25
2023/01/11 08:23:08;;;;;;;6.30;4.30;;;;;;;-4.23;78.06;99708.13;105421;1259;77047;-25
2023/01/11 08:25:36;;;;;;;8.60;4.40;;;;;;;-3.99;78.45;99700.73;105300;1254;73104;-25
2023/01/11 08:28:04;;;;;;;7.50;3.70;;;;;;;-3.48;77.09;99697.06;105613;1260;61291;-25
2023/01/11 08:30:31;;;;;;;8.40;4.10;;;;;;;-3.39;76.03;99697.44;105416;1254;61602;-25
2023/01/11 08:33:00;;;;;;;8.70;4.70;;;;;;;-3.59;75.81;99698.23;105603;1257;76292;-28
2023/01/11 08:35:27;;;;;;;9.70;4.00;;;;;;;-3.73;76.84;99702.13;105625;1254;76758;-26
2023/01/11 08:37:54;;;;;;;7.30;3.60;;;;;;;-3.88;77.06;99700.79;105524;1259;75199;-30
2023/01/11 08:40:20;;;;;;;5.40;3.40;;;;;;;-4.09;77.57;99689.15;105556;1254;60977;-28
2023/01/11 08:42:56;;;;;;;6.80;3.40;;;;;;;-3.88;77.66;99684.15;105709;1257;62414;-28
2023/01/11 08:45:24;;;;;;;8.30;3.80;;;;;;;-3.32;76.12;99672.73;105590;1254;75512;-28
2023/01/11 08:47:52;;;;;;;9.80;4.10;;;;;;;-3.26;74.92;99670.94;105661;1254;76789;-25
2023/01/11 08:50:19;;;;;;;8.70;4.00;;;;;;;-3.56;75.18;99672.22;105632;1257;75363;-24
2023/01/11 08:52:49;;;;;;;8.20;4.40;;;;;;;-3.82;76.45;99669.48;105693;1253;62369;-25
2023/01/11 08:55:18;;;;;;;7.90;4.60;;;;;;;-4.04;76.90;99671.63;105624;1254;62686;-24
2023/01/11 08:57:45;;;;;;;24.30;7.70;;;;;;;-4.31;77.36;99660.73;105623;1259;74853;-24
2023/01/11 09:00:13;;;;;;;11.20;5.50;;;;;;;-4.20;77.51;99659.42;105583;1254;75907;-24
2023/01/11 09:02:41;;;;;;;8.90;4.00;;;;;;;-3.92;76.44;99661.80;105585;1260;74981;-25
2023/01/11 09:05:08;;;;;;;6.70;3.90;;;;;;;-3.96;75.50;99668.30;105788;1254;61684;-25
2023/01/11 09:07:35;;;;;;;4.60;2.90;;;;;;;-4.15;76.05;99681.58;105686;1259;61494;-24
2023/01/11 09:10:03;;;;;;;7.30;3.60;;;;;;;-4.34;76.75;99691.44;105598;1255;75191;-24
2023/01/11 09:12:31;;;;;;;6.20;3.70;;;;;;;-4.53;77.19;99682.98;105743;1254;75566;-24
2023/01/11 09:14:58;;;;;;;7.20;3.50;;;;;;;-4.59;77.77;99688.29;105697;1254;75000;-24
2023/01/11 09:17:26;;;;;;;8.60;3.40;;;;;;;-4.12;76.99;99681.21;105786;1254;61144;-25
2023/01/11 09:19:53;;;;;;;7.60;4.90;;;;;;;-3.99;76.22;99683.11;105654;1253;61425;-25
2023/01/11 09:22:20;;;;;;;8.50;4.70;;;;;;;-4.08;76.51;99687.61;105671;1254;76222;-24
2023/01/11 09:24:48;;;;;;;10.80;5.70;;;;;;;-4.20;76.32;99682.65;105685;1254;76642;-24
2023/01/11 09:27:15;;;;;;;7.20;4.40;;;;;;;-4.38;76.40;99685.21;105765;1254;75275;-24
2023/01/11 09:29:42;;;;;;;8.20;4.30;;;;;;;-4.58;77.13;99686.26;105724;1254;62563;-25
2023/01/11 09:32:09;;;;;;;5.20;3.20;;;;;;;-4.43;77.53;99684.41;105538;1254;63005;-24
2023/01/11 09:34:38;;;;;;;11.70;4.90;;;;;;;-3.88;76.04;99691.28;105580;1255;75262;-25
2023/01/11 09:37:05;;;;;;;7.80;3.90;;;;;;;-3.71;75.21;99697.02;105558;1259;74482;-27
2023/01/11 09:39:33;;;;;;;10.50;4.70;;;;;;;-3.80;75.06;99705.27;105551;1254;74015;-25
2023/01/11 09:42:30;;;;;;;8.70;3.40;;;;;;;-4.01;75.29;99697.70;105703;1253;61054;-25
2023/01/11 09:45:05;;;;;;;10.50;6.10;;;;;;;-4.34;75.59;99693.80;105712;1254;62802;-25
2023/01/11 09:47:43;;;;;;;6.50;4.00;;;;;;;-4.69;76.29;99701.09;105723;1259;75269;-25
2023/01/11 09:50:20;;;;;;;11.40;6.10;;;;;;;-4.52;77.31;99698.89;105706;1252;75861;-25
2023/01/11 09:52:53;;;;;;;6.50;4.50;;;;;;;-3.96;76.00;99693.75;105658;1254;74901;-25
2023/01/11 09:55:33;;;;;;;8.10;5.10;;;;;;;-3.93;74.68;99680.13;105618;1254;61067;-25
2023/01/11 09:58:21;;;;;;;7.50;4.40;;;;;;;-4.14;75.09;99676.81;105723;1258;61957;-25
2023/01/11 10:01:16;;;;;;;9.80;5.50;;;;;;;-4.32;76.15;99674.80;105652;1254;75317;-25
2023/01/11 10:04:14;;;;;;;5.70;4.10;;;;;;;-4.49;76.72;99671.60;109394;1253;74354;-24
2023/01/11 10:06:51;;;;;;;8.60;4.00;;;;;;;-4.36;77.62;99671.96;109331;1253;73367;-24
2023/01/11 10:09:34;;;;;;;9.00;4.80;;;;;;;-3.73;76.50;99683.97;109316;1253;61665;-24
2023/01/11 10:12:43;;;;;;;12.90;6.30;;;;;;;-3.67;74.70;99683.73;109453;1253;62389;-24
2023/01/11 10:16:07;;;;;;;7.90;4.80;;;;;;;-3.79;75.00;99691.16;109349;1253;74507;-25
2023/01/11 10:19:03;;;;;;;12.60;5.90;;;;;;;-4.11;75.81;99686.63;109050;1254;75192;-24
2023/01/11 10:21:57;;;;;;;8.40;4.80;;;;;;;-4.44;76.41;99689.66;109248;1254;74394;-25
2023/01/11 10:24:26;;;;;;;10.50;6.60;;;;;;;-4.55;77.11;99697.91;109262;1254;61002;-24
2023/01/11 10:26:56;;;;;;;8.20;4.60;;;;;;;-4.11;76.76;99700.02;109363;1253;62051;-25
2023/01/11 10:32:38;;;;;;;11.50;5.30;;;;;;;-3.77;74.79;99693.19;109366;1253;75377;-25
2023/01/11 10:38:22;;;;;;;6.30;4.10;;;;;;;-4.28;75.80;99691.21;109187;1254;60621;-25
2023/01/11 10:41:02;;;;;;;9.60;5.10;;;;;;;-4.55;76.88;99693.85;109154;1254;60967;-24
2023/01/11 10:43:30;;;;;;;6.30;3.20;;;;;;;-4.52;77.92;99689.24;109141;1254;73984;-25
2023/01/11 10:46:05;;;;;;;11.30;4.60;;;;;;;-4.01;77.12;99695.00;109233;1253;75549;-24
2023/01/11 10:48:36;;;;;;;9.40;4.10;;;;;;;-3.75;75.84;99689.59;109318;1254;74743;-24
2023/01/11 10:51:39;;;;;;;9.90;4.50;;;;;;;-3.84;75.82;99680.21;109306;1254;61942;-25
2023/01/11 10:54:12;;;;;;;6.40;3.60;;;;;;;-4.02;76.49;99676.52;109249;1254;61319;-24
2023/01/11 10:56:58;;;;;;;7.60;4.00;;;;;;;-4.11;76.72;99667.80;109255;1254;76025;-24
2023/01/11 10:59:52;;;;;;;7.00;4.40;;;;;;;-4.35;76.82;99660.77;109179;1254;73229;-25
2023/01/11 11:02:52;;;;;;;11.10;4.30;;;;;;;-4.34;77.52;99662.61;109272;1254;73651;-24
2023/01/11 11:06:16;;;;;;;6.80;4.80;;;;;;;-3.51;76.06;99660.94;109183;1254;60191;-25
2023/01/11 11:08:55;;;;;;;;;;;;;;;-3.26;74.47;99658.20;108874;1260;61335;-25
2023/01/11 11:11:33;;;;;;;9.00;4.90;;;;;;;-3.40;74.88;99653.30;109218;1254;75972;-25
2023/01/11 11:14:01;;;;;;;7.40;5.10;;;;;;;-3.61;75.11;99650.21;109168;1254;74825;-25
2023/01/11 11:16:37;;;;;;;12.30;4.30;;;;;;;-3.88;75.56;99645.13;109179;1254;71512;-24
2023/01/11 11:19:07;;;;;;;8.50;4.10;;;;;;;-4.11;76.40;99646.42;109347;1253;58790;-24
2023/01/11 11:21:36;;;;;;;5.80;3.30;;;;;;;-4.29;77.19;99648.84;109164;1254;61664;-24
2023/01/11 11:24:13;;;;;;;5.70;3.10;;;;;;;-4.29;77.68;99645.27;109285;1254;75920;-24
2023/01/11 11:26:43;;;;;;;10.70;5.00;;;;;;;-3.68;77.05;99645.20;109149;1253;76358;-25
2023/01/11 11:29:10;;;;;;;7.20;4.30;;;;;;;-3.52;75.41;99648.70;109220;1254;74617;-24
2023/01/11 11:31:42;;;;;;;14.40;5.70;;;;;;;-3.73;75.53;99653.59;109100;1261;60521;-25
2023/01/11 11:34:17;;;;;;;6.90;4.50;;;;;;;-3.99;76.64;99653.07;109239;1253;60976;-24
2023/01/11 11:36:46;;;;;;;12.50;4.10;;;;;;;-4.21;77.76;99652.30;109134;1253;76265;-24
2023/01/11 11:39:21;;;;;;;8.80;5.00;;;;;;;-4.41;78.60;99654.89;109166;1254;76034;-24
2023/01/11 11:41:50;;;;;;;13.40;5.50;;;;;;;-4.51;79.63;99656.02;109145;1254;74646;-25
2023/01/11 11:44:27;;;;;;;10.30;4.40;;;;;;;-4.42;80.05;99656.76;109106;1261;63786;-25
2023/01/11 11:47:02;;;;;;;7.90;4.20;;;;;;;-3.63;78.91;99662.96;109158;1254;61063;-25
2023/01/11 11:49:30;;;;;;;8.10;5.40;;;;;;;-3.28;77.19;99671.98;109221;1254;74481;-25
2023/01/11 11:51:58;;;;;;;8.40;4.00;;;;;;;-3.51;76.69;99674.68;109148;1254;76382;-25
2023/01/11 11:54:25;;;;;;;10.50;3.70;;;;;;;-3.80;77.40;99689.66;109123;1254;74722;-25
2023/01/11 11:56:53;;;;;;;7.80;4.40;;;;;;;-3.99;78.20;99696.33;109209;1260;60309;-24
2023/01/11 11:59:21;;;;;;;11.00;6.10;;;;;;;-4.12;78.63;99702.75;109168;1254;62124;-24
2023/01/11 12:01:54;;;;;;;11.50;5.70;;;;;;;-4.26;78.98;99699.84;109188;1254;75027;-24
2023/01/11 12:04:23;;;;;;;9.20;4.90;;;;;;;-4.38;79.69;99695.71;109141;1254;76711;-24
2023/01/11 12:07:19;;;;;;;7.80;4.70;;;;;;;-3.99;79.86;99688.87;109157;1254;73656;-24
2023/01/11 12:09:47;;;;;;;18.30;5.80;;;;;;;-3.59;77.94;99688.89;109096;1254;60561;-25
2023/01/11 12:12:19;;;;;;;10.60;5.10;;;;;;;-3.64;77.84;99691.84;109120;1254;61268;-25
2023/01/11 12:15:05;;;;;;;8.20;4.60;;;;;;;-3.77;77.72;99691.83;109131;1254;74981;-25